Time;durP1;ratioP1;P1;durP2;ratioP2;P2;SDS_P1;SDS_P2;PMS_P1;PMS_P2;Temp;Humidity;BMP_temperature;BMP_pressure;BME280_temperature;BME280_humidity;BME280_pressure;Samples;Min_cycle;Max_cycle;Signal;HPM_P1;HPM_P2
2022/11/06 00:00:32;;;;;;;4.63;3.13;;;10.50;91.80;;;;;;5111732;28;20452;-67
2022/11/06 00:02:59;;;;;;;6.40;3.23;;;10.50;91.90;;;;;;5111736;28;20463;-68
2022/11/06 00:08:11;;;;;;;8.80;3.40;;;10.50;91.90;;;;;;5111981;28;20419;-67
2022/11/06 00:10:37;;;;;;;4.43;2.90;;;10.50;91.90;;;;;;5111895;28;20447;-67
2022/11/06 00:13:04;;;;;;;3.43;2.77;;;10.50;91.90;;;;;;5112177;28;20466;-67
2022/11/06 00:15:33;;;;;;;7.40;3.37;;;10.40;92.00;;;;;;5115936;28;20451;-67
2022/11/06 00:18:00;;;;;;;7.07;3.07;;;10.40;92.00;;;;;;5115382;28;20448;-68
2022/11/06 00:20:27;;;;;;;4.93;2.90;;;10.40;91.90;;;;;;5116319;28;20448;-67
2022/11/06 00:22:54;;;;;;;3.73;3.00;;;10.40;92.00;;;;;;5115742;28;20467;-69
2022/11/06 00:25:20;;;;;;;5.17;3.20;;;10.40;91.90;;;;;;5115824;28;20450;-69
2022/11/06 00:27:47;;;;;;;5.33;2.63;;;10.40;92.00;;;;;;5115612;28;20433;-67
2022/11/06 00:30:14;;;;;;;6.90;3.20;;;10.30;92.10;;;;;;5115431;28;20447;-68
2022/11/06 00:32:42;;;;;;;5.20;3.00;;;10.30;92.10;;;;;;5116665;28;20470;-67
2022/11/06 00:35:08;;;;;;;7.50;2.40;;;10.30;92.20;;;;;;5117150;28;20427;-69
2022/11/06 00:37:35;;;;;;;4.43;3.20;;;10.20;92.20;;;;;;5114760;28;20451;-67
2022/11/06 00:40:03;;;;;;;3.43;2.97;;;10.20;92.40;;;;;;5115389;28;20484;-68
2022/11/06 00:42:30;;;;;;;5.23;2.60;;;10.20;92.50;;;;;;5114210;28;20468;-68
2022/11/06 00:44:56;;;;;;;6.30;3.03;;;10.20;92.50;;;;;;5115174;28;20485;-68
2022/11/06 00:47:24;;;;;;;4.13;2.60;;;10.20;92.40;;;;;;5115602;28;20450;-67
2022/11/06 00:49:52;;;;;;;5.43;2.47;;;10.20;92.50;;;;;;5116164;28;20450;-67
2022/11/06 00:52:18;;;;;;;2.70;2.50;;;10.10;92.60;;;;;;5117422;28;20449;-68
2022/11/06 00:54:45;;;;;;;5.00;2.83;;;10.00;92.60;;;;;;5120655;28;20425;-68
2022/11/06 00:57:12;;;;;;;7.70;2.70;;;10.00;92.80;;;;;;5115927;28;20451;-67
2022/11/06 00:59:38;;;;;;;10.00;2.60;;;10.00;92.90;;;;;;5114951;28;20438;-68
2022/11/06 01:02:05;;;;;;;11.17;2.90;;;10.00;93.00;;;;;;5114980;28;20473;-69
2022/11/06 01:04:32;;;;;;;6.93;3.00;;;10.00;92.90;;;;;;5115763;28;20484;-69
2022/11/06 01:07:00;;;;;;;6.07;2.70;;;10.00;93.00;;;;;;5115696;28;20427;-67
2022/11/06 01:09:28;;;;;;;4.00;2.60;;;10.00;92.90;;;;;;5116118;28;20451;-68
2022/11/06 01:11:56;;;;;;;5.40;3.07;;;10.10;93.10;;;;;;5115566;28;20477;-68
2022/11/06 01:14:24;;;;;;;3.70;2.60;;;10.10;93.00;;;;;;5114945;28;20805;-67
2022/11/06 01:16:51;;;;;;;13.43;2.63;;;10.10;93.00;;;;;;5114724;28;20456;-67
2022/11/06 01:19:20;;;;;;;5.63;2.90;;;10.10;92.90;;;;;;5114580;28;20482;-68
2022/11/06 01:21:48;;;;;;;4.03;2.23;;;10.00;92.60;;;;;;5114735;28;20457;-68
2022/11/06 01:24:23;;;;;;;3.43;2.07;;;10.00;92.80;;;;;;5115203;28;20482;-68
2022/11/06 01:26:50;;;;;;;4.77;2.20;;;10.00;92.80;;;;;;5114066;28;20422;-68
2022/11/06 01:29:19;;;;;;;4.73;2.37;;;9.90;93.50;;;;;;5115614;28;20438;-67
2022/11/06 01:31:48;;;;;;;4.80;2.27;;;10.00;93.10;;;;;;5114767;28;20446;-68
2022/11/06 01:34:16;;;;;;;3.50;2.60;;;9.90;93.70;;;;;;5114604;28;20454;-69
2022/11/06 01:36:43;;;;;;;7.33;2.77;;;10.00;93.20;;;;;;5114941;28;20470;-68
2022/11/06 01:39:12;;;;;;;3.97;2.50;;;10.00;93.00;;;;;;5115803;28;20459;-68
2022/11/06 01:41:43;;;;;;;3.30;2.60;;;10.00;92.70;;;;;;5114316;28;20446;-68
2022/11/06 01:44:43;;;;;;;4.97;2.77;;;10.00;92.70;;;;;;5113895;28;20465;-69
2022/11/06 01:47:20;;;;;;;4.00;2.47;;;10.00;92.90;;;;;;5113684;28;20442;-67
2022/11/06 01:49:47;;;;;;;6.87;3.37;;;10.00;92.90;;;;;;5114090;28;20433;-67
2022/11/06 01:52:15;;;;;;;4.20;2.63;;;10.00;93.00;;;;;;5113835;28;20472;-68
2022/11/06 01:54:45;;;;;;;5.90;2.07;;;9.90;93.50;;;;;;5114694;28;20424;-69
2022/11/06 01:57:13;;;;;;;3.30;1.90;;;10.00;93.00;;;;;;5113841;28;20456;-67
2022/11/06 01:59:43;;;;;;;4.27;1.80;;;9.90;93.40;;;;;;5114203;28;20440;-67
2022/11/06 02:02:10;;;;;;;5.10;2.80;;;9.90;93.40;;;;;;5113964;28;20465;-68
2022/11/06 02:04:39;;;;;;;4.83;2.17;;;9.90;93.50;;;;;;5113864;28;20485;-68
2022/11/06 02:07:07;;;;;;;4.30;2.13;;;9.90;93.60;;;;;;5114372;28;20451;-67
2022/11/06 02:09:34;;;;;;;3.63;1.97;;;9.90;93.40;;;;;;5113719;28;20451;-67
2022/11/06 02:12:07;;;;;;;5.47;2.53;;;9.90;93.50;;;;;;5113312;28;20472;-69
2022/11/06 02:14:41;;;;;;;6.23;2.37;;;9.90;93.50;;;;;;5113189;28;20441;-69
2022/11/06 02:17:15;;;;;;;3.53;2.27;;;9.90;93.50;;;;;;5113827;28;20439;-67
2022/11/06 02:19:58;;;;;;;3.37;1.73;;;9.90;93.50;;;;;;5112931;28;20430;-67
2022/11/06 02:22:37;;;;;;;4.93;2.47;;;9.90;93.50;;;;;;5112837;28;20992;-68
2022/11/06 02:25:13;;;;;;;5.50;1.70;;;9.90;93.60;;;;;;5112531;28;20469;-68
2022/11/06 02:27:45;;;;;;;4.30;2.40;;;10.00;92.90;;;;;;5113205;28;20449;-68
2022/11/06 02:30:14;;;;;;;6.27;2.23;;;10.00;92.80;;;;;;5113569;28;20433;-68
2022/11/06 02:32:44;;;;;;;5.47;1.93;;;10.00;92.80;;;;;;5113547;28;20473;-68
2022/11/06 02:35:20;;;;;;;3.30;2.10;;;10.00;92.90;;;;;;5113469;28;20799;-67
2022/11/06 02:37:50;;;;;;;2.80;2.13;;;10.00;92.80;;;;;;5112422;28;20448;-68
2022/11/06 02:40:18;;;;;;;4.90;2.57;;;10.00;92.70;;;;;;5112473;28;20435;-68
2022/11/06 02:42:50;;;;;;;5.60;2.43;;;10.00;92.70;;;;;;5112441;28;20465;-68
2022/11/06 02:45:19;;;;;;;5.53;2.77;;;10.00;92.80;;;;;;5113200;28;20470;-67
2022/11/06 02:47:48;;;;;;;6.57;2.00;;;10.00;92.70;;;;;;5112327;28;20448;-67
2022/11/06 02:50:19;;;;;;;3.10;1.60;;;10.00;92.70;;;;;;5112241;28;20450;-67
2022/11/06 02:52:50;;;;;;;3.33;2.07;;;10.00;92.70;;;;;;5113214;28;20467;-68
2022/11/06 02:55:22;;;;;;;4.37;1.87;;;9.90;93.20;;;;;;5113023;28;20426;-68
2022/11/06 02:57:54;;;;;;;6.37;2.30;;;9.90;93.20;;;;;;5113084;28;20426;-68
2022/11/06 03:00:22;;;;;;;4.27;2.07;;;9.90;93.30;;;;;;5113303;28;20441;-67
2022/11/06 03:02:55;;;;;;;8.17;2.00;;;9.90;93.40;;;;;;5112407;28;20481;-67
2022/11/06 03:05:28;;;;;;;4.30;1.97;;;9.90;93.40;;;;;;5112063;28;20472;-69
2022/11/06 03:08:00;;;;;;;3.13;2.00;;;9.90;93.40;;;;;;5112434;28;20445;-67
2022/11/06 03:10:31;;;;;;;5.30;2.10;;;9.80;93.50;;;;;;5111682;28;20438;-67
2022/11/06 03:13:06;;;;;;;6.23;2.37;;;9.80;93.60;;;;;;5111860;28;20471;-67
2022/11/06 03:15:39;;;;;;;3.83;2.10;;;9.80;93.70;;;;;;5112758;28;20426;-67
2022/11/06 03:18:12;;;;;;;3.53;1.93;;;9.80;93.60;;;;;;5111986;28;20446;-67
2022/11/06 03:20:42;;;;;;;16.03;2.90;;;9.80;93.70;;;;;;5112187;28;20423;-67
2022/11/06 03:23:13;;;;;;;9.40;2.70;;;9.80;93.80;;;;;;5112136;28;20987;-68
2022/11/06 03:25:46;;;;;;;2.20;1.50;;;9.70;93.80;;;;;;5112268;28;20473;-68
2022/11/06 03:28:22;;;;;;;3.53;1.63;;;9.70;93.90;;;;;;5112005;28;20428;-69
2022/11/06 03:30:53;;;;;;;5.40;2.20;;;9.80;94.00;;;;;;5111887;28;20432;-67
2022/11/06 03:33:24;;;;;;;3.70;2.40;;;9.70;93.90;;;;;;5112404;28;20470;-67
2022/11/06 03:35:56;;;;;;;6.10;1.97;;;9.80;93.90;;;;;;5112195;28;20457;-67
2022/11/06 03:38:26;;;;;;;4.93;2.10;;;9.60;94.10;;;;;;5112481;28;20451;-67
2022/11/06 03:40:59;;;;;;;4.13;2.23;;;9.60;94.20;;;;;;5111946;28;20451;-67
2022/11/06 03:43:32;;;;;;;7.53;2.17;;;9.60;94.30;;;;;;5111129;28;20964;-67
2022/11/06 03:46:01;;;;;;;3.30;2.03;;;9.60;94.50;;;;;;5111283;28;20468;-67
2022/11/06 03:48:32;;;;;;;4.90;1.77;;;9.50;94.50;;;;;;5111408;28;20456;-67
2022/11/06 03:51:04;;;;;;;5.90;2.10;;;9.60;94.60;;;;;;5111584;28;20438;-67
2022/11/06 03:53:36;;;;;;;4.30;2.10;;;9.60;94.60;;;;;;5110760;28;20481;-67
2022/11/06 03:56:07;;;;;;;2.70;1.70;;;9.70;94.60;;;;;;5112062;28;20430;-67
2022/11/06 03:58:38;;;;;;;7.03;1.67;;;9.60;94.60;;;;;;5101225;28;20776;-67
2022/11/06 04:01:07;;;;;;;6.70;2.40;;;9.60;94.60;;;;;;5113319;28;20426;-67
2022/11/06 04:03:44;;;;;;;3.30;1.73;;;9.50;94.60;;;;;;5111838;28;20487;-68
2022/11/06 04:06:17;;;;;;;5.40;3.40;;;9.50;94.70;;;;;;5111234;28;20481;-68
2022/11/06 04:14:18;;;;;;;2.30;1.73;;;9.50;94.90;;;;;;5112664;28;20469;-67
2022/11/06 04:16:50;;;;;;;3.57;1.83;;;9.50;94.90;;;;;;5111389;28;20453;-67
2022/11/06 04:19:19;;;;;;;7.23;2.40;;;9.50;94.90;;;;;;5110935;28;20434;-68
2022/11/06 04:22:01;;;;;;;4.77;1.90;;;9.50;94.90;;;;;;5111095;28;20446;-68
2022/11/06 04:27:37;;;;;;;5.50;2.07;;;9.40;95.30;;;;;;5110684;28;20411;-68
2022/11/06 04:30:08;;;;;;;3.17;2.20;;;9.40;95.40;;;;;;5110217;28;20446;-67
2022/11/06 04:32:46;;;;;;;3.93;2.10;;;9.40;95.40;;;;;;5110520;28;20461;-67
2022/11/06 04:35:20;;;;;;;4.37;2.07;;;9.50;95.40;;;;;;5110885;28;20430;-67
2022/11/06 04:37:54;;;;;;;4.93;2.10;;;9.40;95.50;;;;;;5111971;28;20457;-67
2022/11/06 04:40:27;;;;;;;3.93;1.70;;;9.50;95.60;;;;;;5111756;28;20439;-67
2022/11/06 04:42:58;;;;;;;8.27;2.33;;;9.50;95.60;;;;;;5110899;28;20821;-69
2022/11/06 04:45:31;;;;;;;5.40;2.77;;;9.50;95.70;;;;;;5111254;28;20495;-67
2022/11/06 04:47:58;;;;;;;3.27;2.20;;;9.50;95.70;;;;;;5110620;28;20489;-67
2022/11/06 04:50:27;;;;;;;5.43;2.00;;;9.60;95.70;;;;;;5110684;28;20456;-67
2022/11/06 04:52:55;;;;;;;3.67;2.00;;;9.60;95.60;;;;;;5111047;28;20502;-67
2022/11/06 04:55:22;;;;;;;2.70;1.80;;;9.60;95.50;;;;;;5110961;28;20445;-69
2022/11/06 04:57:49;;;;;;;8.20;1.83;;;9.70;95.50;;;;;;5111076;28;20451;-69
2022/11/06 05:00:17;;;;;;;7.43;3.27;;;9.70;95.40;;;;;;5111781;28;20453;-67
2022/11/06 05:02:45;;;;;;;1.97;1.60;;;9.70;95.50;;;;;;5114315;28;20472;-67
2022/11/06 05:05:12;;;;;;;13.50;2.30;;;9.70;95.40;;;;;;5114568;28;20491;-67
2022/11/06 05:07:38;;;;;;;5.00;1.90;;;9.80;95.50;;;;;;5115123;28;20455;-67
2022/11/06 05:10:06;;;;;;;3.47;1.83;;;9.70;95.40;;;;;;5114733;28;20450;-67
2022/11/06 05:12:33;;;;;;;7.13;2.10;;;9.80;95.40;;;;;;5114660;28;20466;-67
2022/11/06 05:14:59;;;;;;;4.40;2.10;;;9.70;95.30;;;;;;5114684;28;20973;-67
2022/11/06 05:17:26;;;;;;;4.97;1.70;;;9.80;95.40;;;;;;5114631;28;20455;-67
2022/11/06 05:19:54;;;;;;;4.90;1.70;;;9.80;95.40;;;;;;5114540;28;20465;-67
2022/11/06 05:25:05;;;;;;;6.57;2.00;;;9.90;95.40;;;;;;5114494;28;20523;-68
2022/11/06 05:27:32;;;;;;;3.87;1.70;;;9.90;95.40;;;;;;5114655;28;20450;-68
2022/11/06 05:29:59;;;;;;;3.57;1.63;;;9.90;95.40;;;;;;5114414;28;20449;-67
2022/11/06 05:32:25;;;;;;;6.03;1.70;;;9.90;95.40;;;;;;5114841;28;20465;-67
2022/11/06 05:34:53;;;;;;;16.57;2.63;;;9.90;95.30;;;;;;5114886;28;20449;-68
2022/11/06 05:37:20;;;;;;;5.43;1.80;;;9.90;95.30;;;;;;5114740;28;20452;-68
2022/11/06 05:39:47;;;;;;;5.27;1.60;;;9.90;95.30;;;;;;5113914;28;20438;-68
2022/11/06 05:42:14;;;;;;;8.00;1.90;;;9.90;95.40;;;;;;5113771;28;20463;-68
2022/11/06 05:44:41;;;;;;;9.80;1.93;;;9.90;95.40;;;;;;5114134;28;20490;-68
2022/11/06 05:47:07;;;;;;;4.93;1.97;;;10.00;94.90;;;;;;5113854;28;20454;-69
2022/11/06 05:49:34;;;;;;;6.40;1.63;;;10.00;94.80;;;;;;5114142;28;20454;-67
2022/11/06 05:52:02;;;;;;;9.43;2.90;;;10.00;94.80;;;;;;5114312;28;20467;-69
2022/11/06 05:54:29;;;;;;;7.43;2.10;;;10.00;94.70;;;;;;5114508;28;20453;-69
2022/11/06 05:56:55;;;;;;;7.40;2.20;;;10.00;94.70;;;;;;5113936;28;20457;-69
2022/11/06 05:59:22;;;;;;;3.70;2.27;;;10.00;94.70;;;;;;5114265;28;20439;-67
2022/11/06 06:01:49;;;;;;;4.93;1.83;;;10.00;94.70;;;;;;5114375;28;20465;-68
2022/11/06 06:04:16;;;;;;;8.30;2.30;;;10.00;94.70;;;;;;5114723;28;20456;-69
2022/11/06 06:06:43;;;;;;;5.30;2.30;;;10.00;94.70;;;;;;5114694;28;20485;-69
2022/11/06 06:09:11;;;;;;;3.67;1.70;;;9.90;95.40;;;;;;5114773;28;20528;-68
2022/11/06 06:11:37;;;;;;;6.13;2.73;;;9.90;95.40;;;;;;5113934;28;20448;-68
2022/11/06 06:14:04;;;;;;;6.80;2.30;;;9.90;95.50;;;;;;5113474;28;20450;-68
2022/11/06 06:16:31;;;;;;;4.50;1.90;;;9.90;95.60;;;;;;5113914;28;20446;-67
2022/11/06 06:18:58;;;;;;;5.37;2.20;;;9.90;95.70;;;;;;5113557;28;20447;-68
2022/11/06 06:21:24;;;;;;;2.83;1.80;;;9.90;95.70;;;;;;5113988;28;20448;-68
2022/11/06 06:23:51;;;;;;;4.20;2.30;;;9.90;95.80;;;;;;5113849;28;20474;-68
2022/11/06 06:26:19;;;;;;;5.23;2.10;;;9.90;95.90;;;;;;5113947;28;20511;-68
2022/11/06 06:28:48;;;;;;;2.83;1.60;;;9.90;95.80;;;;;;5113705;28;20454;-68
2022/11/06 06:31:14;;;;;;;5.20;1.83;;;9.90;95.80;;;;;;5114159;28;20425;-68
2022/11/06 06:33:41;;;;;;;4.83;2.03;;;9.90;95.80;;;;;;5113585;28;20458;-68
2022/11/06 06:36:09;;;;;;;2.30;1.67;;;9.80;95.90;;;;;;5113610;28;20449;-68
2022/11/06 06:38:35;;;;;;;7.73;2.07;;;9.90;95.90;;;;;;5113153;28;20435;-68
2022/11/06 06:41:03;;;;;;;2.53;1.63;;;9.90;95.90;;;;;;5114293;28;20458;-68
2022/11/06 06:43:31;;;;;;;6.67;2.33;;;9.90;95.90;;;;;;5113845;28;20544;-68
2022/11/06 06:45:58;;;;;;;6.70;2.10;;;9.90;96.00;;;;;;5113789;28;20492;-68
2022/11/06 06:48:25;;;;;;;5.63;1.87;;;9.80;95.90;;;;;;5114033;28;20456;-68
2022/11/06 06:50:52;;;;;;;6.57;1.97;;;9.90;96.10;;;;;;5113742;28;20443;-68
2022/11/06 06:53:18;;;;;;;4.00;2.40;;;9.90;96.10;;;;;;5113401;28;20466;-68
2022/11/06 06:55:45;;;;;;;7.63;2.30;;;9.90;96.10;;;;;;5114018;28;20446;-68
2022/11/06 06:58:12;;;;;;;2.63;1.40;;;9.90;96.20;;;;;;5113656;28;20431;-68
2022/11/06 07:00:40;;;;;;;8.50;2.70;;;9.80;96.10;;;;;;5113247;28;20443;-68
2022/11/06 07:03:07;;;;;;;5.43;2.70;;;9.90;96.10;;;;;;5119504;28;20475;-68
2022/11/06 07:05:34;;;;;;;5.40;2.60;;;9.90;96.10;;;;;;5116035;28;20535;-68
2022/11/06 07:08:00;;;;;;;8.40;4.07;;;10.00;95.50;;;;;;5113597;28;20458;-68
2022/11/06 07:10:27;;;;;;;8.23;3.53;;;9.90;96.00;;;;;;5112806;28;20455;-68
2022/11/06 07:12:54;;;;;;;7.67;2.63;;;9.90;96.10;;;;;;5113308;28;20884;-68
2022/11/06 07:15:20;;;;;;;14.37;4.10;;;9.90;96.10;;;;;;5113315;28;20450;-68
2022/11/06 07:17:48;;;;;;;4.73;2.67;;;9.90;96.20;;;;;;5113019;28;20450;-68
2022/11/06 07:20:15;;;;;;;4.43;2.20;;;10.00;95.60;;;;;;5112546;28;20455;-68
2022/11/06 07:22:42;;;;;;;5.10;1.53;;;10.00;95.50;;;;;;5112317;28;20472;-68
2022/11/06 07:25:09;;;;;;;6.87;2.07;;;10.10;95.50;;;;;;5112208;28;20474;-68
2022/11/06 07:27:36;;;;;;;5.33;2.30;;;10.10;95.50;;;;;;5112452;28;20426;-69
2022/11/06 07:30:03;;;;;;;4.50;2.07;;;10.20;95.40;;;;;;5113006;28;20431;-69
2022/11/06 07:32:31;;;;;;;5.90;2.10;;;10.30;95.30;;;;;;5115265;28;20840;-71
2022/11/06 07:34:59;;;;;;;4.50;3.57;;;10.20;95.10;;;;;;5113393;28;20798;-69
2022/11/06 07:37:25;;;;;;;6.17;3.10;;;10.30;95.10;;;;;;5113018;28;20465;-70
2022/11/06 07:39:52;;;;;;;9.00;3.70;;;10.40;95.10;;;;;;5111956;28;20449;-68
2022/11/06 07:42:19;;;;;;;10.20;3.37;;;10.40;94.90;;;;;;5111634;28;20459;-68
2022/11/06 07:44:45;;;;;;;5.50;3.13;;;10.50;94.80;;;;;;5111997;28;20450;-67
2022/11/06 07:47:12;;;;;;;9.87;3.37;;;10.50;94.70;;;;;;5110736;28;20483;-69
2022/11/06 07:49:39;;;;;;;5.63;2.93;;;10.60;94.60;;;;;;5112166;28;20450;-68
2022/11/06 07:52:07;;;;;;;6.33;3.10;;;10.60;94.60;;;;;;5112199;28;20478;-68
2022/11/06 07:54:34;;;;;;;6.00;3.13;;;10.70;94.60;;;;;;5112060;28;20456;-68
2022/11/06 07:57:00;;;;;;;3.60;1.90;;;10.80;94.40;;;;;;5094547;28;20447;-68
2022/11/06 07:59:27;;;;;;;5.93;2.70;;;10.80;94.20;;;;;;5112432;28;20448;-69
2022/11/06 08:01:54;;;;;;;6.73;2.60;;;10.80;94.10;;;;;;5112160;28;20450;-69
2022/11/06 08:04:21;;;;;;;2.90;1.97;;;10.80;94.00;;;;;;5110621;28;20459;-67
2022/11/06 08:06:47;;;;;;;3.60;1.60;;;10.90;94.10;;;;;;5112118;28;20486;-68
2022/11/06 08:09:16;;;;;;;5.53;2.00;;;10.90;93.90;;;;;;5113386;28;20445;-68
2022/11/06 08:11:42;;;;;;;3.03;1.83;;;10.90;93.90;;;;;;5112791;28;20446;-68
2022/11/06 08:14:09;;;;;;;5.20;1.93;;;10.90;93.80;;;;;;5112560;28;20447;-69
2022/11/06 08:16:36;;;;;;;5.40;2.03;;;10.90;93.80;;;;;;5112382;28;20431;-69
2022/11/06 08:19:03;;;;;;;2.13;1.77;;;11.00;93.70;;;;;;5112427;28;20453;-68
2022/11/06 08:21:30;;;;;;;6.90;1.83;;;11.10;93.70;;;;;;5111748;28;20979;-68
2022/11/06 08:23:56;;;;;;;4.83;3.50;;;11.30;93.60;;;;;;5113159;28;20472;-68
2022/11/06 08:26:25;;;;;;;4.10;1.60;;;11.40;93.30;;;;;;5112699;28;20475;-69
2022/11/06 08:28:51;;;;;;;3.93;2.20;;;11.50;93.10;;;;;;5111505;28;20443;-68
2022/11/06 08:31:19;;;;;;;7.37;1.97;;;11.60;93.00;;;;;;5110594;28;20510;-69
2022/11/06 08:33:46;;;;;;;5.17;1.47;;;11.70;92.80;;;;;;5111474;28;20477;-68
2022/11/06 08:36:13;;;;;;;10.37;2.57;;;11.80;92.40;;;;;;5113418;28;20455;-68
2022/11/06 08:38:40;;;;;;;8.97;2.50;;;11.90;92.10;;;;;;5115247;28;20450;-68
2022/11/06 08:41:07;;;;;;;5.20;1.87;;;11.90;92.00;;;;;;5116041;28;20446;-68
2022/11/06 08:43:37;;;;;;;5.43;1.50;;;12.00;91.90;;;;;;5083144;28;20466;-68
2022/11/06 08:46:03;;;;;;;6.57;2.70;;;12.10;91.80;;;;;;5096921;28;20858;-68
2022/11/06 08:48:30;;;;;;;8.73;1.90;;;12.20;91.70;;;;;;5097301;28;20443;-68
2022/11/06 08:50:58;;;;;;;6.30;1.93;;;12.30;91.40;;;;;;5097760;28;20453;-69
2022/11/06 08:53:25;;;;;;;3.03;1.70;;;12.40;91.10;;;;;;5097480;28;20842;-69
2022/11/06 08:55:51;;;;;;;7.93;1.80;;;12.50;90.40;;;;;;5097214;28;20434;-69
2022/11/06 08:58:18;;;;;;;6.37;1.77;;;12.60;90.30;;;;;;5097533;28;20504;-69
2022/11/06 09:00:46;;;;;;;6.60;1.60;;;12.70;90.20;;;;;;5097202;28;20438;-69
2022/11/06 09:03:16;;;;;;;5.10;1.47;;;12.80;90.20;;;;;;5097187;28;20467;-68
2022/11/06 09:05:44;;;;;;;3.67;1.83;;;12.90;89.90;;;;;;5097166;28;20485;-69
2022/11/06 09:08:11;;;;;;;2.47;1.40;;;13.00;89.30;;;;;;5096800;28;20435;-69
2022/11/06 09:10:39;;;;;;;5.33;1.63;;;13.10;89.50;;;;;;5096812;28;20809;-69
2022/11/06 09:13:06;;;;;;;6.50;2.17;;;13.30;88.90;;;;;;5097600;28;20491;-69
2022/11/06 09:15:33;;;;;;;6.50;2.03;;;13.40;88.20;;;;;;5097011;28;20454;-69
2022/11/06 09:18:01;;;;;;;4.90;2.10;;;13.60;87.80;;;;;;5096782;28;20450;-68
2022/11/06 09:20:28;;;;;;;5.23;1.83;;;13.80;87.10;;;;;;5096804;28;20458;-69
2022/11/06 09:23:00;;;;;;;5.20;2.70;;;14.00;85.80;;;;;;5096880;28;21009;-69
2022/11/06 09:25:28;;;;;;;5.90;1.90;;;14.00;83.60;;;;;;5097336;28;20489;-68
2022/11/06 09:27:54;;;;;;;6.20;1.73;;;14.00;83.00;;;;;;5097046;28;20447;-68
2022/11/06 09:30:23;;;;;;;4.10;1.90;;;14.10;83.10;;;;;;5097123;28;20447;-68
2022/11/06 09:32:51;;;;;;;2.97;1.70;;;14.10;82.80;;;;;;5096744;28;20466;-68
2022/11/06 09:35:20;;;;;;;3.37;1.63;;;14.00;82.10;;;;;;5096613;28;20451;-69
2022/11/06 09:37:46;;;;;;;3.63;1.70;;;14.00;82.00;;;;;;5096666;28;20456;-69
2022/11/06 09:40:20;;;;;;;4.80;2.23;;;13.90;82.10;;;;;;5097228;28;20446;-69
2022/11/06 09:42:56;;;;;;;8.20;2.10;;;13.90;82.60;;;;;;5097540;28;20536;-69
2022/11/06 09:45:26;;;;;;;5.07;1.67;;;13.90;83.30;;;;;;5097462;28;20432;-69
2022/11/06 09:47:58;;;;;;;4.47;2.00;;;13.90;83.10;;;;;;5097810;28;20456;-69
2022/11/06 09:50:30;;;;;;;8.53;2.37;;;14.00;83.10;;;;;;5098388;28;20431;-69
2022/11/06 09:52:59;;;;;;;4.23;2.50;;;14.00;82.50;;;;;;5098639;28;20467;-69
2022/11/06 09:55:30;;;;;;;5.10;1.97;;;14.10;82.30;;;;;;5097528;28;20430;-69
2022/11/06 09:58:01;;;;;;;6.47;2.43;;;14.30;82.10;;;;;;5096957;28;20431;-69
2022/11/06 10:00:28;;;;;;;4.57;2.27;;;14.40;80.50;;;;;;5097615;28;20447;-69
2022/11/06 10:02:57;;;;;;;4.20;2.00;;;14.40;80.10;;;;;;5098784;28;20460;-69
2022/11/06 10:05:28;;;;;;;3.23;2.37;;;14.50;80.10;;;;;;5100045;28;20423;-68
2022/11/06 10:07:56;;;;;;;6.40;2.20;;;14.60;79.80;;;;;;5099068;28;20472;-68
2022/11/06 10:10:30;;;;;;;2.30;2.10;;;14.70;79.10;;;;;;5100085;28;20444;-68
2022/11/06 10:13:19;;;;;;;2.37;1.20;;;14.90;78.50;;;;;;5099830;28;20839;-68
2022/11/06 10:15:52;;;;;;;3.70;1.77;;;15.00;77.60;;;;;;5099609;28;20432;-68
2022/11/06 10:18:26;;;;;;;6.10;1.40;;;15.10;77.10;;;;;;5099251;28;20459;-69
2022/11/06 10:21:01;;;;;;;3.90;1.93;;;15.10;75.80;;;;;;5098547;28;20789;-69
2022/11/06 10:23:36;;;;;;;9.20;1.43;;;15.10;75.20;;;;;;5099628;28;20471;-69
2022/11/06 10:26:10;;;;;;;7.70;2.60;;;14.90;75.60;;;;;;5099991;28;21130;-69
2022/11/06 10:29:05;;;;;;;2.80;1.60;;;15.00;76.50;;;;;;5110206;28;20432;-72
2022/11/06 10:31:44;;;;;;;2.90;1.50;;;15.10;76.40;;;;;;5117536;28;20413;-73
2022/11/06 10:34:15;;;;;;;3.00;1.80;;;15.20;75.80;;;;;;5118735;28;20412;-73
2022/11/06 10:36:48;;;;;;;8.80;1.90;;;15.30;75.30;;;;;;5119299;28;20452;-72
2022/11/06 10:39:20;;;;;;;3.90;1.80;;;15.30;75.10;;;;;;5119013;28;20413;-73
2022/11/06 10:41:50;;;;;;;2.60;1.47;;;15.30;74.70;;;;;;5115709;28;20425;-76
2022/11/06 10:44:24;;;;;;;4.27;1.90;;;15.10;73.50;;;;;;5110216;28;20435;-74
2022/11/06 10:46:55;;;;;;;7.07;1.80;;;15.10;74.30;;;;;;5112124;28;20477;-73
2022/11/06 10:49:34;;;;;;;6.53;1.70;;;15.00;74.50;;;;;;5116209;28;20436;-73
2022/11/06 10:52:36;;;;;;;3.07;1.43;;;14.90;74.70;;;;;;5118093;28;20461;-71
2022/11/06 10:55:30;;;;;;;2.63;1.60;;;14.70;74.50;;;;;;5118218;28;20428;-73
2022/11/06 10:58:04;;;;;;;3.40;1.50;;;14.60;74.90;;;;;;5118095;28;20428;-74
2022/11/06 11:00:32;;;;;;;4.27;1.37;;;14.60;75.30;;;;;;5120156;28;20406;-71
2022/11/06 11:03:02;;;;;;;3.70;1.80;;;14.60;75.20;;;;;;5120010;28;20458;-72
2022/11/06 11:05:38;;;;;;;2.80;1.40;;;14.50;74.30;;;;;;5119986;28;20451;-71
2022/11/06 11:08:06;;;;;;;5.03;1.60;;;14.50;74.80;;;;;;5119740;28;20483;-71
2022/11/06 11:10:35;;;;;;;7.37;1.70;;;14.50;74.40;;;;;;5119762;28;20420;-71
2022/11/06 11:13:04;;;;;;;2.30;1.60;;;14.40;74.30;;;;;;5115513;28;20470;-72
2022/11/06 11:15:33;;;;;;;4.87;1.40;;;14.30;74.80;;;;;;5109571;28;20930;-69
2022/11/06 11:18:16;;;;;;;2.50;1.40;;;14.30;74.80;;;;;;5101512;28;20942;-69
2022/11/06 11:20:45;;;;;;;6.83;1.83;;;14.30;74.90;;;;;;5095228;28;20446;-71
2022/11/06 11:23:20;;;;;;;3.83;1.60;;;14.40;75.40;;;;;;5094594;28;20475;-69
2022/11/06 11:25:49;;;;;;;5.70;1.93;;;14.60;75.30;;;;;;5094231;28;20431;-68
2022/11/06 11:28:27;;;;;;;6.40;1.43;;;14.90;73.70;;;;;;5093703;28;20487;-68
2022/11/06 11:30:55;;;;;;;2.80;1.20;;;15.30;72.00;;;;;;5093849;28;20442;-69
2022/11/06 11:33:25;;;;;;;3.30;1.20;;;15.70;70.10;;;;;;5093636;28;20475;-69
2022/11/06 11:35:54;;;;;;;4.20;1.50;;;16.10;67.80;;;;;;5093517;28;20487;-68
2022/11/06 11:38:22;;;;;;;5.80;1.67;;;16.20;66.10;;;;;;5093563;28;20871;-69
2022/11/06 11:40:50;;;;;;;9.10;2.10;;;16.30;65.10;;;;;;5093452;28;20489;-69
2022/11/06 11:43:25;;;;;;;2.13;1.17;;;16.10;64.80;;;;;;5094001;28;20456;-71
2022/11/06 11:46:14;;;;;;;4.30;1.40;;;16.10;65.30;;;;;;5094090;28;20424;-74
2022/11/06 11:48:43;;;;;;;3.90;1.10;;;16.20;64.70;;;;;;5093776;28;20440;-73
2022/11/06 11:51:24;;;;;;;4.00;1.60;;;16.20;63.90;;;;;;5093875;28;20486;-71
2022/11/06 11:53:54;;;;;;;4.77;1.30;;;16.30;63.90;;;;;;5094153;28;20471;-69
2022/11/06 11:56:21;;;;;;;4.30;1.30;;;16.50;63.90;;;;;;5093844;28;20428;-70
2022/11/06 11:58:51;;;;;;;2.87;1.47;;;16.70;61.60;;;;;;5093636;28;20977;-70
2022/11/06 12:01:19;;;;;;;5.70;1.60;;;16.90;60.20;;;;;;5093521;28;20839;-70
2022/11/06 12:03:51;;;;;;;3.50;1.70;;;17.20;59.50;;;;;;5093880;28;20467;-70
2022/11/06 12:06:19;;;;;;;3.20;1.37;;;17.20;59.40;;;;;;5093940;28;20437;-70
2022/11/06 12:08:49;;;;;;;4.03;1.43;;;17.10;59.50;;;;;;5093404;28;20455;-70
2022/11/06 12:11:22;;;;;;;4.03;1.67;;;16.70;59.30;;;;;;5097559;28;20428;-70
2022/11/06 12:14:24;;;;;;;2.70;1.60;;;16.40;60.80;;;;;;5097692;28;20468;-70
2022/11/06 12:16:54;;;;;;;4.20;1.50;;;16.20;62.10;;;;;;5097854;28;20439;-69
2022/11/06 12:19:24;;;;;;;3.77;1.87;;;16.00;62.50;;;;;;5097316;28;20950;-70
2022/11/06 12:21:54;;;;;;;3.93;1.70;;;15.80;63.50;;;;;;5097471;28;20440;-70
2022/11/06 12:24:24;;;;;;;2.77;1.73;;;15.90;63.40;;;;;;5097535;28;20416;-70
2022/11/06 12:26:57;;;;;;;7.03;1.73;;;15.90;63.50;;;;;;5098078;28;20464;-70
2022/11/06 12:29:31;;;;;;;4.90;2.17;;;15.90;63.90;;;;;;5099727;28;20428;-72
2022/11/06 12:32:07;;;;;;;5.90;2.83;;;15.80;62.60;;;;;;5097703;28;20474;-69
2022/11/06 12:34:38;;;;;;;3.90;2.53;;;15.80;64.40;;;;;;5105501;28;20414;-69
2022/11/06 12:37:24;;;;;;;5.53;2.47;;;15.90;66.50;;;;;;5107118;28;20452;-69
2022/11/06 12:39:57;;;;;;;7.20;2.70;;;15.90;67.20;;;;;;5107763;28;20432;-69
2022/11/06 12:42:29;;;;;;;3.47;2.53;;;16.00;67.40;;;;;;5104846;28;20471;-69
2022/11/06 12:44:56;;;;;;;5.97;2.73;;;16.10;67.20;;;;;;5104492;28;20439;-69
2022/11/06 12:47:37;;;;;;;7.97;2.47;;;16.10;65.60;;;;;;5104226;28;20464;-69
2022/11/06 12:50:21;;;;;;;3.80;2.30;;;16.10;66.00;;;;;;5102775;28;20430;-69
2022/11/06 12:53:05;;;;;;;5.57;2.47;;;16.60;65.20;;;;;;5102097;28;20463;-69
2022/11/06 12:55:34;;;;;;;4.50;1.97;;;17.30;61.40;;;;;;5102593;28;20810;-69
2022/11/06 12:58:20;;;;;;;4.60;2.13;;;17.70;57.90;;;;;;5102345;28;20473;-69
2022/11/06 13:00:57;;;;;;;2.67;1.63;;;17.70;55.70;;;;;;5101922;28;20424;-69
2022/11/06 13:03:59;;;;;;;2.23;1.60;;;17.40;55.10;;;;;;5108518;28;20471;-70
2022/11/06 13:06:53;;;;;;;3.07;1.80;;;17.10;55.50;;;;;;5115377;28;20424;-70
2022/11/06 13:09:26;;;;;;;1.97;1.10;;;16.70;56.10;;;;;;5115862;28;20448;-69
2022/11/06 13:11:57;;;;;;;2.50;1.27;;;16.40;56.40;;;;;;5115035;28;20435;-70
2022/11/06 13:14:32;;;;;;;4.30;1.30;;;16.00;56.70;;;;;;5106554;28;20424;-69
2022/11/06 13:17:04;;;;;;;2.73;1.50;;;15.80;57.50;;;;;;5110822;28;20462;-69
2022/11/06 13:19:35;;;;;;;2.60;1.30;;;15.70;57.80;;;;;;5098124;28;20433;-71